Главная страница
METAR-TAF:

METAR-TAF

Аэропорты :

Самсун, Турция

широта: 41-15-15N, долгота: 036-34-03E, высота над уровнем моря: 5 м

Текущие метеонаблюдения

Эта сводка был подготовлена 56 минут назад, в 16:50 UTC
Ветер 5 Узел от восточный
Температура 7°C
Влажность 66%
Давление 1021 hPa
Видимость 10 км и более
Нет облачности ниже 1500 м, и нет кучево-дождевой облачности

METAR: LTFH 281650Z 08005KT CAVOK 07/01 Q1021 NOSIG

Время: 20:46 (17:46 UTC)

Прогноз

Эта сводка был подготовлена 1 час и 6 минут назад, в 16:40 UTC
Прогноз действительный с 28-го 18 UTC до 29-го 03 UTC
Ветер 2 Узел переменных направлений
Видимость 10 км и более
Нет облачности ниже 1500 м, и нет кучево-дождевой облачности

TAF: LTFH 281640Z 2818/2903 VRB02KT CAVOK

Метеонаблюдения и прогнозы для более 4000 аэропортов (сводки METAR и TAF).

Имеющиеся станции представлены на карте желтыми и красными точками.

Чтобы увидеть название станции, наведите на нее мышь.

Затем щелкните, чтобы увидеть метеонаблюдения и метеопрогнозы.

Управление картой: чтобы увеличить масштаб, щелкните зеленые кнопки с черным крестиком; чтобы уменьшить масштаб, щелкните зеленую кнопку с тире; для просмотра соседних карт щелкайте зеленые стрелки.


METAR-TAF: